Time;durP1;ratioP1;P1;durP2;ratioP2;P2;SDS_P1;SDS_P2;PMS_P1;PMS_P2;Temp;Humidity;BMP_temperature;BMP_pressure;BME280_temperature;BME280_humidity;BME280_pressure;Samples;Min_cycle;Max_cycle;Signal;HPM_P1;HPM_P2
2021/01/30 00:00:07;;;;;;;2.07;1.90;;;0.40;99.90;-0.90;95041.00;;;;5091877;28;21044;-79
2021/01/30 00:02:35;;;;;;;1.73;1.63;;;0.40;99.90;-0.90;95051.00;;;;5092410;28;20847;-80
2021/01/30 00:05:04;;;;;;;4.03;1.90;;;0.40;99.90;-0.90;95060.00;;;;5090601;28;21049;-79
2021/01/30 00:07:32;;;;;;;6.50;3.97;;;0.40;99.90;-1.00;95051.00;;;;5085214;28;20854;-79
2021/01/30 00:10:00;;;;;;;6.20;2.17;;;0.40;99.90;-0.90;95057.00;;;;5091414;28;20429;-81
2021/01/30 00:12:28;;;;;;;2.73;2.13;;;0.40;99.90;-0.90;95054.00;;;;5088261;28;20957;-79
2021/01/30 00:14:57;;;;;;;5.63;3.23;;;0.40;99.90;-1.00;95051.00;;;;5086567;28;20992;-81
2021/01/30 00:17:24;;;;;;;3.57;2.83;;;0.30;99.90;-0.90;95071.00;;;;5090760;28;21053;-80
2021/01/30 00:19:52;;;;;;;6.13;4.00;;;0.40;99.90;-1.00;95051.00;;;;5090946;28;21100;-81
2021/01/30 00:22:21;;;;;;;12.97;5.53;;;0.30;99.90;-1.10;95053.00;;;;5091949;28;20933;-79
2021/01/30 00:24:49;;;;;;;6.37;3.97;;;0.30;99.90;-1.10;95046.00;;;;5091807;28;20825;-79
2021/01/30 00:27:21;;;;;;;4.03;2.20;;;0.70;99.90;-1.20;95043.00;;;;5090789;28;20430;-79
2021/01/30 00:29:50;;;;;;;2.20;2.00;;;0.20;99.90;-1.20;95030.00;;;;5088450;28;20939;-79
2021/01/30 00:32:21;;;;;;;3.73;2.03;;;0.20;99.90;-1.20;95036.00;;;;5071020;28;20426;-80
2021/01/30 00:34:49;;;;;;;4.90;2.93;;;0.10;99.90;-1.30;95034.00;;;;5071356;28;20958;-79
2021/01/30 00:37:20;;;;;;;6.20;2.90;;;0.20;99.90;-1.40;95031.00;;;;5071140;28;20935;-79
2021/01/30 00:39:49;;;;;;;4.50;2.33;;;0.10;99.90;-1.40;95035.00;;;;5066157;28;21050;-79
2021/01/30 00:42:20;;;;;;;2.77;2.17;;;0.00;99.90;-1.40;95044.00;;;;5091642;28;20457;-79
2021/01/30 00:44:48;;;;;;;4.07;2.20;;;0.00;99.90;-1.50;95045.00;;;;5078327;28;20972;-79
2021/01/30 00:47:16;;;;;;;3.17;2.03;;;0.00;99.90;-1.40;95051.00;;;;5077983;28;20430;-80
2021/01/30 00:49:45;;;;;;;2.97;1.50;;;-0.10;99.90;-1.00;95053.00;;;;5071757;28;20951;-80
2021/01/30 00:52:16;;;;;;;1.83;1.70;;;0.00;99.90;-1.20;95055.00;;;;5050660;28;20902;-80
2021/01/30 00:54:44;;;;;;;2.67;1.80;;;0.10;99.90;-1.20;95069.00;;;;5051058;28;21021;-79
2021/01/30 00:57:12;;;;;;;2.13;1.77;;;0.10;99.90;-1.40;95073.00;;;;5050384;28;20956;-79
2021/01/30 00:59:41;;;;;;;3.80;1.73;;;0.00;99.90;-1.50;95052.00;;;;5051350;28;20441;-80
2021/01/30 01:02:09;;;;;;;1.77;1.47;;;0.00;99.90;-1.50;95059.00;;;;5084477;28;20939;-80
2021/01/30 01:04:37;;;;;;;4.40;2.00;;;-0.10;99.90;-1.50;95066.00;;;;5081852;28;20979;-80
2021/01/30 01:07:05;;;;;;;3.83;1.70;;;-0.10;99.90;-1.50;95068.00;;;;5070647;28;20965;-79
2021/01/30 01:09:33;;;;;;;2.17;1.57;;;-0.10;99.90;-1.50;95059.00;;;;5071134;28;21023;-80
2021/01/30 01:12:00;;;;;;;1.67;1.57;;;-0.20;99.90;-1.60;95063.00;;;;5074845;28;20429;-80
2021/01/30 01:14:28;;;;;;;1.13;1.07;;;-0.20;99.90;-1.60;95042.00;;;;5076402;28;20959;-81
2021/01/30 01:16:56;;;;;;;1.90;1.70;;;-0.20;99.90;-1.70;95049.00;;;;5078261;28;20532;-81
2021/01/30 01:19:23;;;;;;;1.83;1.53;;;-0.30;99.90;-1.70;95042.00;;;;5091476;28;20796;-80
2021/01/30 01:21:52;;;;;;;4.77;1.73;;;-0.30;99.90;-1.90;95031.00;;;;5091384;28;21016;-81
2021/01/30 01:24:22;;;;;;;2.30;2.10;;;-0.30;99.90;-1.80;95024.00;;;;5091213;28;20461;-80
2021/01/30 01:26:51;;;;;;;1.20;1.10;;;-0.40;99.90;-1.80;95031.00;;;;5091300;28;20941;-79
2021/01/30 01:29:21;;;;;;;3.70;1.47;;;-0.40;99.90;-1.70;95041.00;;;;5089421;28;20958;-80
2021/01/30 01:31:51;;;;;;;1.80;1.33;;;-0.40;99.90;-1.70;95032.00;;;;5091124;28;20433;-79
2021/01/30 01:34:22;;;;;;;2.03;1.40;;;-0.40;99.90;-1.80;95035.00;;;;5091571;28;20930;-80
2021/01/30 01:36:55;;;;;;;2.47;1.33;;;-0.40;99.90;-1.70;95031.00;;;;5091305;28;20929;-80
2021/01/30 01:39:24;;;;;;;1.33;1.23;;;-0.40;99.90;-1.70;95037.00;;;;5097414;28;20433;-80
2021/01/30 01:42:10;;;;;;;2.03;1.20;;;-0.20;99.90;-1.60;95048.00;;;;5110452;28;20498;-79
2021/01/30 01:44:39;;;;;;;1.60;1.50;;;-0.40;99.90;-1.70;95049.00;;;;5117133;28;20429;-80
2021/01/30 01:47:10;;;;;;;2.73;1.40;;;-0.30;99.90;-1.80;95073.00;;;;5115449;28;20429;-80
2021/01/30 01:49:41;;;;;;;1.20;1.10;;;-0.40;99.90;-1.90;95063.00;;;;5095559;28;20429;-80
2021/01/30 01:52:26;;;;;;;0.87;0.83;;;-0.40;99.90;-2.00;95057.00;;;;5094350;28;20444;-80
2021/01/30 01:54:58;;;;;;;1.23;1.03;;;-0.50;99.90;-1.90;95057.00;;;;5092071;28;20965;-81
2021/01/30 01:57:27;;;;;;;1.40;1.30;;;-0.50;99.90;-1.90;95049.00;;;;5085194;28;20985;-79
2021/01/30 01:59:57;;;;;;;1.20;1.10;;;-0.50;99.90;-1.80;95051.00;;;;5073035;28;20805;-80
2021/01/30 02:02:27;;;;;;;0.97;0.97;;;-0.50;99.90;-2.00;95043.00;;;;5073726;28;20947;-80
2021/01/30 02:05:03;;;;;;;1.30;1.00;;;-0.50;99.90;-1.90;95025.00;;;;5081072;28;20453;-80
2021/01/30 02:07:36;;;;;;;5.50;2.63;;;-0.60;99.90;-2.00;95037.00;;;;5082257;28;20882;-80
2021/01/30 02:10:08;;;;;;;2.87;1.40;;;-0.60;99.90;-1.90;95053.00;;;;5073467;28;20441;-81
2021/01/30 02:12:36;;;;;;;1.23;0.97;;;-0.60;99.90;-2.10;95050.00;;;;5073500;28;20943;-81
2021/01/30 02:15:06;;;;;;;1.40;1.30;;;-0.60;99.90;-2.10;95040.00;;;;5086521;28;20458;-81
2021/01/30 02:17:44;;;;;;;2.03;1.10;;;-0.60;99.90;-1.70;95035.00;;;;5090281;28;20437;-79
2021/01/30 02:21:07;;;;;;;1.10;1.00;;;-0.60;99.90;-1.70;95035.00;;;;5093782;28;20473;-80
2021/01/30 02:24:20;;;;;;;1.13;0.93;;;-0.50;99.90;-1.90;95058.00;;;;5091535;28;20977;-80
2021/01/30 02:27:46;;;;;;;1.27;1.00;;;-0.50;99.90;-2.00;95044.00;;;;5093583;28;20477;-80
2021/01/30 02:30:54;;;;;;;2.30;1.30;;;-0.50;99.90;-1.90;95049.00;;;;5002733;28;20448;-80
2021/01/30 02:34:13;;;;;;;0.80;0.80;;;-0.60;99.90;-1.90;95024.00;;;;5092091;28;20429;-81
2021/01/30 02:36:51;;;;;;;2.00;1.07;;;-0.60;99.90;-2.00;95038.00;;;;5067454;28;21008;-81
2021/01/30 02:39:23;;;;;;;1.37;0.83;;;-0.60;99.90;-2.10;95030.00;;;;5092195;28;20444;-80
2021/01/30 02:41:59;;;;;;;2.93;1.57;;;-0.60;99.90;-2.10;95036.00;;;;5092734;28;20473;-81
2021/01/30 02:44:31;;;;;;;2.07;0.90;;;-0.60;99.90;-2.10;95028.00;;;;5093420;28;21037;-80
2021/01/30 02:46:59;;;;;;;0.87;0.87;;;-0.70;99.90;-2.10;95034.00;;;;5092967;28;20454;-81
2021/01/30 02:49:34;;;;;;;1.20;1.10;;;-0.10;99.90;-2.30;95034.00;;;;5092578;28;20438;-80
2021/01/30 02:52:10;;;;;;;1.77;1.10;;;-0.70;99.90;-2.20;95025.00;;;;5092546;28;20424;-80
2021/01/30 02:54:39;;;;;;;1.00;0.90;;;-0.80;99.90;-2.10;95027.00;;;;5091379;28;20437;-80
2021/01/30 02:57:10;;;;;;;1.63;0.93;;;-0.80;99.90;-2.10;95040.00;;;;5088380;28;20422;-81
2021/01/30 02:59:45;;;;;;;1.77;1.30;;;-0.80;99.90;-2.10;95037.00;;;;5091647;28;20444;-81
2021/01/30 03:02:12;;;;;;;1.40;1.07;;;-0.80;99.90;-2.10;95037.00;;;;5093370;28;20478;-80
2021/01/30 03:04:41;;;;;;;1.47;1.37;;;-0.70;99.90;-2.00;95036.00;;;;5092803;28;20617;-81
2021/01/30 03:07:44;;;;;;;1.90;1.17;;;-0.70;99.90;-2.10;95033.00;;;;5092278;28;20441;-80
2021/01/30 03:10:20;;;;;;;2.47;0.73;;;-0.70;99.90;-2.10;95033.00;;;;5092868;28;20852;-81
2021/01/30 03:12:56;;;;;;;1.30;1.20;;;-0.70;99.90;-2.20;95035.00;;;;5093330;28;20516;-80
2021/01/30 03:15:34;;;;;;;1.90;1.13;;;-0.70;99.90;-2.30;95028.00;;;;5073936;28;20460;-81
2021/01/30 03:18:06;;;;;;;0.93;0.90;;;-0.80;99.90;-2.20;95025.00;;;;5090471;28;20461;-81
2021/01/30 03:20:39;;;;;;;4.10;1.80;;;-0.80;99.90;-2.20;95020.00;;;;5084565;28;20531;-81
2021/01/30 03:23:09;;;;;;;2.20;1.50;;;-0.80;99.90;-2.20;95020.00;;;;5086475;28;20926;-80
2021/01/30 03:25:39;;;;;;;6.90;1.40;;;-0.80;99.90;-2.20;95027.00;;;;5072156;28;20458;-80
2021/01/30 03:28:07;;;;;;;1.27;1.17;;;-0.80;99.90;-2.40;95026.00;;;;5071669;28;20433;-80
2021/01/30 03:30:35;;;;;;;4.47;1.40;;;-0.90;99.90;-2.60;95012.00;;;;5089875;28;20429;-79
2021/01/30 03:33:04;;;;;;;1.50;1.50;;;-0.90;99.90;-2.50;95029.00;;;;5093050;28;20522;-80
2021/01/30 03:35:32;;;;;;;2.43;1.77;;;-1.00;99.90;-2.50;95031.00;;;;5092466;28;20544;-80
2021/01/30 03:38:00;;;;;;;3.50;1.43;;;-1.00;99.90;-2.40;95031.00;;;;5091998;28;20433;-79
2021/01/30 03:40:28;;;;;;;3.00;1.40;;;-1.00;99.90;-2.40;95023.00;;;;5092537;28;20481;-80
2021/01/30 03:42:58;;;;;;;3.00;1.90;;;-1.00;99.90;-2.40;95032.00;;;;5092923;28;20483;-80
2021/01/30 03:45:29;;;;;;;1.70;1.60;;;-1.00;99.90;-2.40;95037.00;;;;5092223;28;20536;-80
2021/01/30 03:47:57;;;;;;;2.53;1.53;;;-1.10;99.90;-2.70;95029.00;;;;5092016;28;20434;-80
2021/01/30 03:50:25;;;;;;;2.67;1.10;;;-1.10;99.90;-2.60;95037.00;;;;5092521;28;20425;-79
2021/01/30 03:52:53;;;;;;;2.00;1.00;;;-1.10;99.90;-2.50;95034.00;;;;5092474;28;20532;-80
2021/01/30 03:55:22;;;;;;;0.90;0.90;;;-1.20;99.90;-2.50;95037.00;;;;5092616;28;20540;-80
2021/01/30 03:57:51;;;;;;;2.03;1.53;;;-1.10;99.90;-2.60;95046.00;;;;5091436;28;20482;-78
2021/01/30 04:00:22;;;;;;;1.60;1.50;;;-1.10;99.90;-2.70;95036.00;;;;5091519;28;20437;-80
2021/01/30 04:02:51;;;;;;;2.33;1.77;;;-1.20;99.90;-2.50;95059.00;;;;5091846;28;20426;-79
2021/01/30 04:05:21;;;;;;;7.57;1.40;;;-1.20;99.90;-2.40;95041.00;;;;5089894;28;20453;-80
2021/01/30 04:07:50;;;;;;;3.20;1.20;;;-1.10;99.90;-2.40;95028.00;;;;5090902;28;20421;-79
2021/01/30 04:10:24;;;;;;;1.10;1.10;;;-1.10;99.90;-2.40;95020.00;;;;5078428;28;20433;-80
2021/01/30 04:12:52;;;;;;;1.60;1.20;;;-1.10;99.90;-2.50;95050.00;;;;5090915;28;20996;-80
2021/01/30 04:15:23;;;;;;;7.03;5.57;;;-1.10;99.90;-2.70;95063.00;;;;5074644;28;20446;-79
2021/01/30 04:17:51;;;;;;;5.47;3.33;;;-1.10;99.90;-2.80;95046.00;;;;5086873;28;20797;-78
2021/01/30 04:20:19;;;;;;;2.07;1.87;;;-1.20;99.90;-2.70;95034.00;;;;5091421;28;20767;-78
2021/01/30 04:22:47;;;;;;;2.63;2.10;;;-1.20;99.90;-2.70;95026.00;;;;5092184;28;20430;-79
2021/01/30 04:25:18;;;;;;;4.07;2.93;;;-1.30;99.90;-2.50;95025.00;;;;5091711;28;20449;-79
2021/01/30 04:27:46;;;;;;;2.40;1.70;;;-1.30;99.90;-2.80;95035.00;;;;5091654;28;20436;-79
2021/01/30 04:30:19;;;;;;;4.77;2.10;;;-1.30;99.90;-2.70;95034.00;;;;5082176;28;20426;-80
2021/01/30 04:32:49;;;;;;;2.80;1.10;;;-1.30;99.90;-2.60;95033.00;;;;5071361;28;20430;-79
2021/01/30 04:35:20;;;;;;;1.70;1.30;;;-1.10;99.90;-2.50;95033.00;;;;5081936;28;20518;-80
2021/01/30 04:37:47;;;;;;;1.23;0.80;;;-1.20;99.90;-2.40;95041.00;;;;5085815;28;20425;-79
2021/01/30 04:40:24;;;;;;;1.03;0.93;;;-1.20;99.90;-2.60;95046.00;;;;5089323;28;20477;-79
2021/01/30 04:42:59;;;;;;;2.40;1.60;;;-1.10;99.90;-2.70;95055.00;;;;5086416;28;20434;-80
2021/01/30 04:45:43;;;;;;;1.27;1.17;;;-1.20;99.90;-2.60;95059.00;;;;5084600;28;20452;-80
2021/01/30 04:48:25;;;;;;;2.23;1.27;;;-1.20;99.90;-2.40;95048.00;;;;5090745;28;20440;-78
2021/01/30 04:51:02;;;;;;;1.53;1.20;;;-1.20;99.90;-2.40;95044.00;;;;5091164;28;20465;-79
2021/01/30 04:53:53;;;;;;;3.10;1.60;;;-1.10;99.90;-2.40;95052.00;;;;5091722;28;20429;-79
2021/01/30 04:56:32;;;;;;;51.57;31.07;;;-1.00;99.90;-2.50;95039.00;;;;5091816;28;20455;-78
2021/01/30 04:59:08;;;;;;;6.53;4.33;;;-1.00;99.90;-2.60;95046.00;;;;5090258;28;20512;-80
2021/01/30 05:01:45;;;;;;;1.90;1.80;;;-1.10;99.90;-2.60;95048.00;;;;5091589;28;20472;-80
2021/01/30 05:04:22;;;;;;;4.10;3.40;;;-1.10;99.90;-2.50;95038.00;;;;5092455;28;20432;-79
2021/01/30 05:07:05;;;;;;;5.30;4.03;;;-1.10;99.90;-2.50;95036.00;;;;5091143;28;20537;-79
2021/01/30 05:09:41;;;;;;;3.03;2.30;;;-1.10;99.90;-2.70;95049.00;;;;5090740;28;20425;-80
2021/01/30 05:12:18;;;;;;;2.80;2.50;;;-1.20;99.90;-2.60;95037.00;;;;5091192;28;20433;-79
2021/01/30 05:14:54;;;;;;;2.30;2.10;;;-1.20;99.90;-2.70;95041.00;;;;5093477;28;20455;-80
2021/01/30 05:17:26;;;;;;;3.77;2.10;;;-1.20;99.90;-2.70;95036.00;;;;5091395;28;20457;-80
2021/01/30 05:20:03;;;;;;;2.50;1.00;;;-1.20;99.90;-2.70;95032.00;;;;5091334;28;20503;-79
2021/01/30 05:22:39;;;;;;;2.53;1.40;;;-1.30;99.90;-2.70;95035.00;;;;5092645;28;20489;-78
2021/01/30 05:25:11;;;;;;;1.87;1.47;;;-1.30;99.90;-2.60;95038.00;;;;5075696;28;20461;-79
2021/01/30 05:28:12;;;;;;;2.83;1.77;;;-1.30;99.90;-2.30;95011.00;;;;5084797;28;20449;-81
2021/01/30 05:30:56;;;;;;;2.13;1.47;;;-1.20;99.90;-2.30;95037.00;;;;5098500;28;20456;-79
2021/01/30 05:33:54;;;;;;;1.33;1.23;;;-1.00;99.90;-2.20;95023.00;;;;5094095;28;20457;-79
2021/01/30 05:36:28;;;;;;;1.37;1.27;;;-1.00;99.90;-2.20;95019.00;;;;5088163;28;20468;-80
2021/01/30 05:39:10;;;;;;;2.20;1.43;;;-0.90;99.90;-2.40;95010.00;;;;5072784;28;20450;-80
2021/01/30 05:41:52;;;;;;;1.50;1.40;;;-0.90;99.90;-2.50;95012.00;;;;5080770;28;20457;-80
2021/01/30 05:44:28;;;;;;;1.77;0.90;;;-1.00;99.90;-2.40;95009.00;;;;5092740;28;20477;-80
2021/01/30 05:46:56;;;;;;;8.10;1.20;;;-1.00;99.90;-2.50;95011.00;;;;5092541;28;20452;-81
2021/01/30 05:49:30;;;;;;;1.30;1.27;;;-1.00;99.90;-2.40;95001.00;;;;5092224;28;20481;-81
2021/01/30 05:52:03;;;;;;;1.23;0.90;;;-1.00;99.90;-2.30;95008.00;;;;5092952;28;20631;-79
2021/01/30 05:54:31;;;;;;;0.70;0.67;;;-1.00;99.90;-2.20;95008.00;;;;5093156;28;20471;-79
2021/01/30 05:56:58;;;;;;;0.63;0.63;;;-0.90;99.90;-2.30;94992.00;;;;5092270;28;20471;-80
2021/01/30 05:59:29;;;;;;;2.67;1.23;;;-0.90;99.90;-2.40;94991.00;;;;5091910;28;20463;-81
2021/01/30 06:02:13;;;;;;;0.93;0.90;;;-1.00;99.90;-2.20;94997.00;;;;5093936;28;20487;-79
2021/01/30 06:04:42;;;;;;;1.00;0.80;;;-0.90;99.90;-2.40;94992.00;;;;5091127;28;20491;-81
2021/01/30 06:07:31;;;;;;;1.13;1.07;;;-0.90;99.90;-2.50;94989.00;;;;5093445;28;20453;-83
2021/01/30 06:09:59;;;;;;;1.03;1.00;;;-1.00;99.90;-2.50;94985.00;;;;5093848;28;20467;-80
2021/01/30 06:12:30;;;;;;;1.73;1.40;;;-1.00;99.90;-2.60;94983.00;;;;5093515;28;20477;-79
2021/01/30 06:15:11;;;;;;;2.30;2.10;;;-1.10;99.90;-2.60;95004.00;;;;5093680;28;20461;-78
2021/01/30 06:17:38;;;;;;;1.53;1.20;;;-1.10;99.90;-2.50;95014.00;;;;5087084;28;20490;-80
2021/01/30 06:20:18;;;;;;;0.93;0.80;;;-1.10;99.90;-2.30;95018.00;;;;5093589;28;20485;-80
2021/01/30 06:23:06;;;;;;;1.00;1.00;;;-1.10;99.90;-2.30;95027.00;;;;5093721;28;20461;-80
2021/01/30 06:25:38;;;;;;;2.30;0.80;;;-1.00;99.90;-2.30;95020.00;;;;5092626;28;20473;-80
2021/01/30 06:28:09;;;;;;;1.33;1.13;;;-0.50;99.90;-2.40;95016.00;;;;5093585;28;20457;-80
2021/01/30 06:30:40;;;;;;;1.13;1.03;;;-0.80;99.90;-2.40;95036.00;;;;5086701;28;20457;-80
2021/01/30 06:33:24;;;;;;;1.43;1.00;;;-1.00;99.90;-2.40;95019.00;;;;5091269;28;20449;-81
2021/01/30 06:35:57;;;;;;;2.27;1.40;;;-1.00;99.90;-2.40;95016.00;;;;5092985;28;20454;-80
2021/01/30 06:38:33;;;;;;;4.47;2.50;;;-1.00;99.90;-2.50;95005.00;;;;5091762;28;20511;-79
2021/01/30 06:41:04;;;;;;;3.87;2.93;;;-1.00;99.90;-2.40;95018.00;;;;5074996;28;20474;-80
2021/01/30 06:43:36;;;;;;;10.77;4.27;;;-1.00;99.90;-2.30;95028.00;;;;5092453;28;20453;-80
2021/01/30 06:46:10;;;;;;;10.63;4.77;;;-1.00;99.90;-2.30;95027.00;;;;5086492;28;20477;-79
2021/01/30 06:48:41;;;;;;;16.60;5.27;;;-1.00;99.90;-2.30;95019.00;;;;5090800;28;20450;-79
2021/01/30 06:51:35;;;;;;;26.00;6.13;;;-1.00;99.90;-2.20;95033.00;;;;5089886;28;20465;-80
2021/01/30 06:54:20;;;;;;;48.10;6.67;;;-0.90;99.90;-2.20;95034.00;;;;5088314;28;20580;-80
2021/01/30 06:57:02;;;;;;;15.80;3.93;;;-0.90;99.90;-2.10;95040.00;;;;5091811;28;20551;-79
2021/01/30 06:59:34;;;;;;;18.00;5.33;;;-0.90;99.90;-2.10;95041.00;;;;5088789;28;20449;-80
2021/01/30 07:02:11;;;;;;;14.40;3.77;;;-0.80;99.90;-2.10;95033.00;;;;5091790;28;20457;-80
2021/01/30 07:05:10;;;;;;;7.17;3.80;;;-0.80;99.90;-1.90;95042.00;;;;5091294;28;20480;-79
2021/01/30 07:08:11;;;;;;;7.53;3.53;;;-0.70;99.90;-1.80;95047.00;;;;5083286;28;20901;-78
2021/01/30 07:10:52;;;;;;;4.43;3.43;;;-0.70;99.90;-1.80;95060.00;;;;5070604;28;20458;-79
2021/01/30 07:13:50;;;;;;;3.77;3.47;;;-0.60;99.90;-1.70;95047.00;;;;5070916;28;20469;-79
2021/01/30 07:16:35;;;;;;;3.53;2.77;;;-0.50;99.90;-1.60;95068.00;;;;5083852;28;20473;-80
2021/01/30 07:19:20;;;;;;;3.83;3.37;;;0.70;99.90;-1.50;95059.00;;;;5080029;28;20935;-80
2021/01/30 07:21:55;;;;;;;26.80;14.30;;;-0.40;99.90;-1.60;95069.00;;;;5087354;28;20468;-80
2021/01/30 07:24:29;;;;;;;37.07;19.07;;;-0.30;99.90;-1.60;95063.00;;;;5087622;28;20456;-81
2021/01/30 07:27:03;;;;;;;31.30;10.23;;;-0.30;99.90;-1.80;95059.00;;;;5087470;28;20449;-80
2021/01/30 07:29:46;;;;;;;13.33;6.77;;;-0.30;99.90;-1.80;95053.00;;;;5083860;28;20465;-80
2021/01/30 07:32:21;;;;;;;43.47;11.63;;;-0.30;99.90;-1.90;95049.00;;;;5091159;28;20526;-79
2021/01/30 07:35:18;;;;;;;23.33;9.10;;;-0.40;99.90;-1.90;95058.00;;;;5091087;28;20473;-80
2021/01/30 07:37:56;;;;;;;54.47;13.57;;;-0.40;99.90;-2.00;95061.00;;;;5090776;28;20536;-79
2021/01/30 07:40:41;;;;;;;10.63;6.20;;;-0.50;99.90;-2.30;95067.00;;;;5089817;28;20469;-79
2021/01/30 07:43:16;;;;;;;12.60;7.33;;;-0.60;99.90;-2.30;95051.00;;;;5090482;28;20457;-80
2021/01/30 07:45:57;;;;;;;24.53;21.53;;;-0.70;99.90;-2.30;95048.00;;;;5090823;28;20942;-80
2021/01/30 07:48:29;;;;;;;15.43;10.17;;;-0.80;99.90;-2.30;95046.00;;;;5088120;28;20462;-80
2021/01/30 07:51:05;;;;;;;7.77;5.97;;;-0.90;99.90;-2.10;95058.00;;;;5088400;28;20462;-80
2021/01/30 07:53:33;;;;;;;10.97;7.47;;;-0.80;99.90;-1.90;95047.00;;;;5088954;28;20455;-77
2021/01/30 07:56:43;;;;;;;10.10;9.00;;;-0.80;99.90;-1.90;95059.00;;;;5078527;28;20480;-80
2021/01/30 08:00:06;;;;;;;15.63;10.77;;;-0.20;99.90;-2.10;95066.00;;;;5044104;28;20950;-80
2021/01/30 08:03:58;;;;;;;9.47;5.37;;;-0.60;99.90;-1.70;95063.00;;;;5029842;28;20489;-80
2021/01/30 08:10:55;;;;;;;4.63;4.23;;;-0.50;99.90;-1.70;95078.00;;;;4940174;28;20898;-79
2021/01/30 08:17:03;;;;;;;16.43;13.90;;;1.20;99.90;-1.60;95082.00;;;;5055874;22;20495;-67
2021/01/30 08:19:44;;;;;;;28.73;19.13;;;-0.30;99.90;-1.50;95076.00;;;;5063266;28;21002;-66
2021/01/30 08:22:22;;;;;;;18.70;15.87;;;-0.30;99.90;-1.20;95083.00;;;;5063146;28;20478;-67
2021/01/30 08:24:57;;;;;;;21.03;15.53;;;-0.20;99.90;-1.10;95074.00;;;;5070868;28;20452;-68
2021/01/30 08:27:31;;;;;;;39.27;20.73;;;0.00;99.90;-1.10;95083.00;;;;5073695;28;20460;-67
2021/01/30 08:30:05;;;;;;;31.87;19.23;;;0.20;99.90;-0.90;95085.00;;;;5064868;28;20457;-68
2021/01/30 08:32:41;;;;;;;17.93;11.57;;;0.20;99.90;-0.80;95097.00;;;;5063913;28;20536;-68
2021/01/30 08:35:52;;;;;;;16.37;11.77;;;0.30;99.90;-0.40;95094.00;;;;5062915;28;20469;-69
2021/01/30 08:38:37;;;;;;;11.10;8.77;;;0.50;99.90;-0.20;95090.00;;;;5075402;28;20505;-69
2021/01/30 08:41:42;;;;;;;12.07;8.40;;;0.70;99.90;-0.10;95094.00;;;;5062579;28;20544;-67
2021/01/30 08:44:30;;;;;;;9.83;8.23;;;0.90;99.90;0.10;95092.00;;;;5064367;28;21020;-68
2021/01/30 08:47:28;;;;;;;9.60;6.63;;;1.10;99.90;0.20;95098.00;;;;5064309;28;20470;-67
2021/01/30 08:50:11;;;;;;;8.57;5.37;;;1.20;99.90;0.40;95105.00;;;;5062516;28;20454;-67
2021/01/30 08:52:51;;;;;;;6.67;6.07;;;1.30;99.90;0.50;95110.00;;;;5063119;28;20462;-67
2021/01/30 08:55:48;;;;;;;12.23;9.00;;;1.50;99.90;0.30;95104.00;;;;5064137;28;20473;-67
2021/01/30 08:58:50;;;;;;;11.03;7.93;;;1.50;99.90;0.30;95091.00;;;;5064729;28;20458;-68
2021/01/30 09:01:44;;;;;;;11.10;7.07;;;1.50;99.90;0.70;95088.00;;;;4984820;28;20556;-67
2021/01/30 09:04:43;;;;;;;11.23;7.60;;;1.60;99.90;0.40;95086.00;;;;5063574;28;20484;-67
2021/01/30 09:07:38;;;;;;;16.93;12.33;;;1.70;99.90;0.60;95077.00;;;;5062441;28;20537;-68
2021/01/30 09:10:38;;;;;;;15.30;10.37;;;1.70;99.90;0.90;95069.00;;;;5062106;28;20466;-68
2021/01/30 09:13:11;;;;;;;11.70;8.53;;;1.80;99.90;1.20;95069.00;;;;5049653;28;20485;-68
2021/01/30 09:16:00;;;;;;;5.43;4.53;;;2.00;99.90;0.80;95064.00;;;;5061276;28;20965;-67
2021/01/30 09:18:58;;;;;;;7.93;6.07;;;2.10;99.90;0.50;95064.00;;;;5061240;28;20570;-67
2021/01/30 09:21:42;;;;;;;10.43;6.73;;;1.90;99.90;0.90;95056.00;;;;5063660;28;20510;-66
2021/01/30 09:25:02;;;;;;;10.13;5.77;;;1.90;99.90;0.80;95060.00;;;;5058251;28;20466;-67
2021/01/30 09:27:33;;;;;;;7.13;4.83;;;2.00;99.90;1.30;95054.00;;;;5051786;28;20465;-67
2021/01/30 09:30:18;;;;;;;5.47;4.73;;;2.10;99.90;2.20;95058.00;;;;5061648;28;20464;-67
2021/01/30 09:32:48;;;;;;;5.67;4.47;;;2.30;99.90;2.20;95065.00;;;;5064062;28;20453;-67
2021/01/30 09:35:21;;;;;;;7.03;4.30;;;2.70;99.90;1.40;95069.00;;;;5063930;28;20984;-67
2021/01/30 09:37:50;;;;;;;6.00;4.77;;;2.60;99.90;1.70;95071.00;;;;5063999;28;20457;-68
2021/01/30 09:40:26;;;;;;;7.90;5.93;;;2.70;99.90;2.10;95060.00;;;;5063511;28;20474;-68
2021/01/30 09:43:01;;;;;;;6.10;4.60;;;2.80;99.90;1.90;95058.00;;;;5063952;28;20473;-68
2021/01/30 09:45:31;;;;;;;28.13;14.37;;;3.00;99.90;2.00;95055.00;;;;5062733;28;20577;-68
2021/01/30 09:48:04;;;;;;;10.23;7.00;;;3.00;99.90;2.20;95052.00;;;;5063538;28;20457;-67
2021/01/30 09:50:35;;;;;;;8.27;5.27;;;3.10;99.90;2.40;95061.00;;;;5063625;28;20450;-67
2021/01/30 09:53:08;;;;;;;8.00;6.47;;;3.20;99.90;1.70;95069.00;;;;5064098;28;20497;-67
2021/01/30 09:55:37;;;;;;;11.53;6.23;;;3.20;99.90;1.90;95075.00;;;;5064820;28;20251;-67
2021/01/30 09:58:10;;;;;;;7.07;5.17;;;3.20;99.90;2.10;95053.00;;;;5055659;28;20973;-68
2021/01/30 10:00:40;;;;;;;8.03;6.37;;;3.20;99.90;2.30;95053.00;;;;5062644;28;20458;-68
2021/01/30 10:03:16;;;;;;;8.87;5.93;;;3.20;99.90;2.40;95051.00;;;;5063553;28;20472;-67
2021/01/30 10:05:44;;;;;;;18.07;10.50;;;3.30;99.90;2.50;95053.00;;;;5061428;28;20829;-67
2021/01/30 10:08:25;;;;;;;20.20;12.13;;;3.40;99.90;2.70;95048.00;;;;5063780;28;20219;-67
2021/01/30 10:11:06;;;;;;;38.87;18.60;;;3.50;99.90;2.90;95054.00;;;;5063558;28;20499;-66
2021/01/30 10:13:36;;;;;;;36.93;18.20;;;3.70;99.90;2.90;95052.00;;;;5061087;28;20228;-67
2021/01/30 10:16:09;;;;;;;45.57;20.27;;;3.80;99.90;3.10;95040.00;;;;5061678;28;20231;-66
2021/01/30 10:18:46;;;;;;;42.40;19.67;;;3.90;99.90;3.20;95044.00;;;;5065162;28;20601;-66
2021/01/30 10:21:15;;;;;;;32.33;17.50;;;4.00;99.90;3.30;95045.00;;;;5061199;28;20227;-66
2021/01/30 10:23:48;;;;;;;32.47;18.50;;;4.10;99.90;3.40;95033.00;;;;5065572;28;20224;-66
2021/01/30 10:26:19;;;;;;;28.47;17.43;;;4.30;99.90;3.50;95027.00;;;;5062263;28;20245;-67
2021/01/30 10:28:51;;;;;;;37.93;17.60;;;4.40;99.90;3.80;95029.00;;;;5065178;28;20331;-66
2021/01/30 10:31:25;;;;;;;23.97;13.73;;;4.50;99.90;4.20;95019.00;;;;5066224;28;20228;-67
2021/01/30 10:34:01;;;;;;;18.10;12.70;;;4.70;99.90;4.40;95025.00;;;;5066509;28;20231;-67
2021/01/30 10:36:31;;;;;;;24.40;12.70;;;4.90;99.90;4.40;95030.00;;;;5066457;28;20402;-67
2021/01/30 10:39:02;;;;;;;35.23;19.57;;;5.10;99.90;3.70;95024.00;;;;5063555;28;20251;-68
2021/01/30 10:41:31;;;;;;;40.47;21.97;;;5.10;99.90;3.30;95021.00;;;;5065312;28;20310;-67
2021/01/30 10:44:03;;;;;;;36.53;21.90;;;5.00;99.90;3.70;95018.00;;;;5065597;28;20259;-67
2021/01/30 10:46:39;;;;;;;29.40;18.17;;;6.00;99.90;4.10;95019.00;;;;5066302;28;20224;-67
2021/01/30 10:49:12;;;;;;;31.27;16.20;;;5.00;99.90;4.70;95006.00;;;;5063506;28;20223;-67
2021/01/30 10:51:40;;;;;;;27.20;15.10;;;5.30;99.90;4.90;95011.00;;;;5064485;28;20228;-67
2021/01/30 10:54:28;;;;;;;25.77;14.50;;;5.70;99.90;6.10;95017.00;;;;5065440;28;20311;-67
2021/01/30 10:57:27;;;;;;;24.50;14.83;;;6.30;99.90;7.30;95009.00;;;;5065545;28;20226;-68
2021/01/30 10:59:59;;;;;;;27.17;14.93;;;7.10;99.90;8.40;95007.00;;;;5062317;28;20285;-68
2021/01/30 11:02:44;;;;;;;25.03;14.87;;;8.00;99.90;9.10;95013.00;;;;5066237;28;20231;-68
2021/01/30 11:05:30;;;;;;;18.77;10.97;;;8.90;99.90;9.90;95018.00;;;;5063615;28;20281;-68
2021/01/30 11:08:01;;;;;;;14.93;9.27;;;9.80;99.90;10.40;95025.00;;;;5062821;28;20257;-68
2021/01/30 11:10:39;;;;;;;13.27;8.73;;;10.50;99.90;10.60;95009.00;;;;5065170;28;20228;-68
2021/01/30 11:13:13;;;;;;;17.70;8.97;;;11.00;99.90;11.30;95016.00;;;;5064217;28;20231;-68
2021/01/30 11:15:43;;;;;;;16.43;10.57;;;11.60;99.90;11.50;95009.00;;;;5063139;28;20243;-68
2021/01/30 11:18:40;;;;;;;16.63;10.10;;;12.00;99.90;12.10;95004.00;;;;5066388;28;20655;-67
2021/01/30 11:21:12;;;;;;;13.00;7.33;;;12.60;99.90;12.30;94993.00;;;;5059053;28;20310;-67
2021/01/30 11:23:47;;;;;;;10.37;7.50;;;13.10;99.90;12.90;94999.00;;;;5063986;28;20228;-68
2021/01/30 11:26:24;;;;;;;14.83;9.87;;;13.50;99.90;12.90;94995.00;;;;5062936;28;20301;-67
2021/01/30 11:28:52;;;;;;;18.77;9.90;;;13.80;99.90;13.70;94990.00;;;;5065087;28;20251;-68
2021/01/30 11:31:20;;;;;;;17.30;10.87;;;14.30;99.90;13.90;94975.00;;;;5068841;28;20569;-67
2021/01/30 11:33:54;;;;;;;17.23;10.63;;;14.60;99.30;14.20;94981.00;;;;5062384;28;20224;-68
2021/01/30 11:36:22;;;;;;;17.57;9.87;;;15.00;94.80;14.60;94987.00;;;;5064177;28;20224;-67
2021/01/30 11:38:58;;;;;;;12.27;9.07;;;15.40;93.10;14.70;94979.00;;;;5065215;28;20231;-67
2021/01/30 11:41:27;;;;;;;13.73;8.10;;;15.70;90.80;14.60;94970.00;;;;5073478;28;20314;-67
2021/01/30 11:43:55;;;;;;;12.17;7.23;;;15.80;84.00;15.40;94956.00;;;;5065457;28;20592;-68